createdAt,value
2022-10-04T00:00:10.433Z,103044.03
2022-10-04T00:02:40.127Z,103043.16
2022-10-04T00:05:11.963Z,103048.38
2022-10-04T00:07:47.061Z,103044.91
2022-10-04T00:10:34.393Z,103040.53
2022-10-04T00:13:06.469Z,103039.63
2022-10-04T00:15:37.491Z,103031.72
2022-10-04T00:18:26.040Z,103024.66
2022-10-04T00:20:55.453Z,103025.53
2022-10-04T00:23:24.917Z,103024.59
2022-10-04T00:25:54.048Z,103005.28
2022-10-04T00:28:20.987Z,102995.59
2022-10-04T00:31:14.841Z,102983.28
2022-10-04T00:33:44.399Z,102977.97
2022-10-04T00:36:26.257Z,102964.72
2022-10-04T00:39:09.163Z,102954.13
2022-10-04T00:41:47.691Z,102940.88
2022-10-04T00:44:41.413Z,102927.63
2022-10-04T00:47:21.086Z,102903.91
2022-10-04T00:49:56.053Z,102889.78
2022-10-04T00:52:45.243Z,102894.16
2022-10-04T00:55:33.232Z,102880.13
2022-10-04T00:58:02.963Z,102875.78
2022-10-04T01:00:33.438Z,102861.75
2022-10-04T01:03:10.743Z,102852.97
2022-10-04T01:05:46.341Z,102853.94
2022-10-04T01:08:16.028Z,102849.63
2022-10-04T01:10:50.655Z,102846.91
2022-10-04T01:13:31.872Z,102844.28
2022-10-04T01:16:13.663Z,102846.91
2022-10-04T01:18:41.107Z,102844.38
2022-10-04T01:21:19.874Z,102846.09
2022-10-04T01:24:11.716Z,102845.22
2022-10-04T01:26:41.998Z,102840.84
2022-10-04T01:29:10.685Z,102847.06
2022-10-04T01:31:41.973Z,102843.59
2022-10-04T01:34:09.317Z,102841.84
2022-10-04T01:36:37.063Z,102845.34
2022-10-04T01:39:04.946Z,102852.41
2022-10-04T01:41:37.709Z,102861.22
2022-10-04T01:44:09.290Z,102869.13
2022-10-04T01:46:38.804Z,102873.56
2022-10-04T01:49:12.681Z,102877.19
2022-10-04T01:52:06.092Z,102889.44
2022-10-04T01:54:50.489Z,102902.63
2022-10-04T01:57:18.709Z,102904.34
2022-10-04T01:59:54.977Z,102910.44
2022-10-04T02:02:30.485Z,102902.59
2022-10-04T02:04:59.949Z,102910.44
2022-10-04T02:07:31.675Z,102903.47
2022-10-04T02:10:03.014Z,102903.41
2022-10-04T02:12:34.864Z,102905.16
2022-10-04T02:15:04.190Z,102909.59
2022-10-04T02:17:39.968Z,102925.41
2022-10-04T02:20:14.113Z,102943.00
2022-10-04T02:22:43.158Z,102943.00
2022-10-04T02:25:10.796Z,102937.72
2022-10-04T02:27:37.606Z,102933.31
2022-10-04T02:30:08.453Z,102926.31
2022-10-04T02:32:57.108Z,102918.41
2022-10-04T02:35:27.534Z,102902.63
2022-10-04T02:38:03.405Z,102901.78
2022-10-04T02:40:48.238Z,102900.91
2022-10-04T02:43:22.770Z,102895.66
2022-10-04T02:46:16.837Z,102892.19
2022-10-04T02:48:43.618Z,102887.84
2022-10-04T02:51:34.441Z,102889.63
2022-10-04T02:54:07.383Z,102894.06
2022-10-04T02:56:35.544Z,102899.31
2022-10-04T02:59:04.856Z,102902.84
2022-10-04T03:01:51.002Z,102902.88
2022-10-04T03:04:21.230Z,102901.09
2022-10-04T03:06:48.822Z,102911.63
2022-10-04T03:09:17.774Z,102912.47
2022-10-04T03:11:46.632Z,102907.22
2022-10-04T03:14:25.382Z,102914.25
2022-10-04T03:16:55.450Z,102900.22
2022-10-04T03:19:24.977Z,102904.59
2022-10-04T03:21:55.425Z,102909.84
2022-10-04T03:24:31.115Z,102915.97
2022-10-04T03:27:00.534Z,102914.19
2022-10-04T03:29:30.294Z,102915.09
2022-10-04T03:31:58.416Z,102911.56
2022-10-04T03:34:31.959Z,102918.53
2022-10-04T03:37:00.990Z,102910.63
2022-10-04T03:39:41.802Z,102902.72
2022-10-04T03:42:14.068Z,102895.72
2022-10-04T03:44:42.119Z,102892.16
2022-10-04T03:47:15.917Z,102887.75
2022-10-04T03:49:49.923Z,102874.59
2022-10-04T03:52:23.100Z,102874.56
2022-10-04T03:54:53.305Z,102872.84
2022-10-04T03:57:20.870Z,102864.88
2022-10-04T03:59:48.730Z,102858.69
2022-10-04T04:02:26.076Z,102841.16
2022-10-04T04:05:25.964Z,102825.34
2022-10-04T04:08:14.732Z,102813.03
2022-10-04T04:10:50.529Z,102802.47
2022-10-04T04:13:22.872Z,102789.31
2022-10-04T04:15:50.590Z,102782.25
2022-10-04T04:18:23.706Z,102778.66
2022-10-04T04:20:53.244Z,102758.50
2022-10-04T04:23:38.503Z,102747.06
2022-10-04T04:26:17.397Z,102735.69
2022-10-04T04:28:58.817Z,102724.28
2022-10-04T04:31:30.079Z,102716.38
2022-10-04T04:34:06.433Z,102709.34
2022-10-04T04:36:43.051Z,102700.56
2022-10-04T04:39:39.721Z,102693.59
2022-10-04T04:42:31.859Z,102689.28
2022-10-04T04:45:07.731Z,102684.06
2022-10-04T04:47:44.135Z,102677.97
2022-10-04T04:50:41.651Z,102669.22
2022-10-04T04:53:23.005Z,102668.41
2022-10-04T04:56:03.922Z,102668.50
2022-10-04T04:58:37.518Z,102661.47
2022-10-04T05:01:18.841Z,102658.97
2022-10-04T05:03:59.429Z,102658.97
2022-10-04T05:06:27.881Z,102660.75
2022-10-04T05:08:54.613Z,102659.84
2022-10-04T05:11:25.072Z,102655.44
2022-10-04T05:14:02.330Z,102658.06
2022-10-04T05:16:43.905Z,102650.16
2022-10-04T05:19:31.282Z,102632.72
2022-10-04T05:22:01.128Z,102632.69
2022-10-04T05:24:29.963Z,102638.81
2022-10-04T05:27:06.000Z,102624.75
2022-10-04T05:29:37.896Z,102625.63
2022-10-04T05:32:49.791Z,102619.53
2022-10-04T05:35:22.104Z,102617.84
2022-10-04T05:37:52.234Z,102612.59
2022-10-04T05:40:47.083Z,102605.56
2022-10-04T05:43:32.705Z,102609.09
2022-10-04T05:46:20.526Z,102603.72
2022-10-04T05:48:53.960Z,102598.47
2022-10-04T05:51:34.019Z,102588.88
2022-10-04T05:54:03.019Z,102595.88
2022-10-04T05:56:41.895Z,102602.94
2022-10-04T05:59:32.455Z,102610.88
2022-10-04T06:02:25.058Z,102616.16
2022-10-04T06:05:43.196Z,102617.03
2022-10-04T06:08:17.122Z,102620.53
2022-10-04T06:10:54.853Z,102616.16
2022-10-04T06:13:40.220Z,102627.53
2022-10-04T06:16:25.668Z,102632.81
2022-10-04T06:19:27.834Z,102630.19
2022-10-04T06:22:21.607Z,102625.00
2022-10-04T06:24:55.050Z,102634.69
2022-10-04T06:27:31.856Z,102644.31
2022-10-04T06:30:05.108Z,102646.00
2022-10-04T06:32:38.383Z,102648.69
2022-10-04T06:35:23.595Z,102647.84
2022-10-04T06:38:23.594Z,102656.63
2022-10-04T06:40:50.282Z,102657.47
2022-10-04T06:43:38.664Z,102667.97
2022-10-04T06:46:31.635Z,102674.91
2022-10-04T06:49:21.257Z,102672.16
2022-10-04T06:52:09.774Z,102671.28
2022-10-04T06:54:58.369Z,102682.56
2022-10-04T06:57:40.383Z,102676.31
2022-10-04T07:00:24.465Z,102663.13
2022-10-04T07:03:20.451Z,102661.31
2022-10-04T07:05:55.237Z,102644.50
2022-10-04T07:08:35.503Z,102628.63
2022-10-04T07:11:22.167Z,102609.28
2022-10-04T07:13:49.118Z,102601.44
2022-10-04T07:16:56.364Z,102586.59
2022-10-04T07:19:37.805Z,102578.59
2022-10-04T07:22:08.037Z,102570.00
2022-10-04T07:24:53.178Z,102555.06
2022-10-04T07:27:32.475Z,102555.13
2022-10-04T07:30:03.921Z,102555.19
2022-10-04T07:32:38.795Z,102554.31
2022-10-04T07:35:14.471Z,102561.16
2022-10-04T07:38:12.783Z,102569.69
2022-10-04T07:41:07.470Z,102576.13
2022-10-04T07:43:46.536Z,102580.69
2022-10-04T07:46:26.116Z,102562.38
2022-10-04T07:48:53.088Z,102555.03
2022-10-04T07:51:55.555Z,102516.03
2022-10-04T07:54:40.874Z,102459.53
2022-10-04T07:57:27.626Z,102423.75
2022-10-04T08:00:08.293Z,102395.72
2022-10-04T08:03:16.236Z,102387.44
2022-10-04T08:05:54.787Z,102377.56
2022-10-04T08:08:24.581Z,102372.09
2022-10-04T08:11:24.580Z,102355.91
2022-10-04T08:14:23.668Z,102349.69
2022-10-04T08:17:02.524Z,102338.31
2022-10-04T08:19:47.757Z,102329.66
2022-10-04T08:22:23.614Z,102325.78
2022-10-04T08:25:05.670Z,102328.53
2022-10-04T08:28:03.177Z,102325.19
2022-10-04T08:30:49.172Z,102329.16
2022-10-04T08:33:40.960Z,102331.00
2022-10-04T08:36:19.527Z,102336.75
2022-10-04T08:39:17.543Z,102312.84
2022-10-04T08:41:54.045Z,102250.53
2022-10-04T08:44:43.016Z,102204.00
2022-10-04T08:47:29.375Z,102161.06
2022-10-04T08:50:02.178Z,102141.84
2022-10-04T08:53:11.214Z,102129.97
2022-10-04T08:55:38.087Z,102116.75
2022-10-04T08:58:41.241Z,102111.81
2022-10-04T09:01:23.692Z,102117.69
2022-10-04T09:04:01.578Z,102112.63
2022-10-04T09:06:49.789Z,102113.34
2022-10-04T09:09:54.168Z,102106.44
2022-10-04T09:12:35.870Z,102110.69
2022-10-04T09:15:21.338Z,102105.25
2022-10-04T09:17:58.924Z,102105.69
2022-10-04T09:20:50.778Z,102104.25
2022-10-04T09:23:34.172Z,102099.75
2022-10-04T09:26:13.031Z,102100.34
2022-10-04T09:28:52.195Z,102103.50
2022-10-04T09:31:43.741Z,102096.44
2022-10-04T09:34:50.962Z,102084.50
2022-10-04T09:37:34.220Z,102088.19
2022-10-04T09:40:04.114Z,102090.38
2022-10-04T09:42:33.992Z,102083.19
2022-10-04T09:45:15.092Z,102074.03
2022-10-04T09:47:46.410Z,102075.63
2022-10-04T09:50:41.043Z,102070.63
2022-10-04T09:53:29.053Z,102062.06
2022-10-04T09:56:14.040Z,102055.00
2022-10-04T09:58:51.588Z,102054.03
2022-10-04T10:01:35.656Z,102064.94
2022-10-04T10:04:20.439Z,102053.69
2022-10-04T10:07:11.959Z,102060.66
2022-10-04T10:10:16.162Z,102054.19
2022-10-04T10:13:16.541Z,102058.25
2022-10-04T10:16:30.432Z,102047.88
2022-10-04T10:19:11.466Z,102050.78
2022-10-04T10:21:50.362Z,102033.16
2022-10-04T10:24:40.344Z,102025.91
2022-10-04T10:27:27.371Z,102023.09
2022-10-04T10:30:32.493Z,102021.81
2022-10-04T10:33:20.399Z,102017.59
2022-10-04T10:35:55.876Z,102019.81
2022-10-04T10:38:42.263Z,102010.25
2022-10-04T10:41:52.391Z,102008.75
2022-10-04T10:44:34.649Z,102003.03
2022-10-04T10:47:14.420Z,102008.53
2022-10-04T10:49:53.371Z,102010.72
2022-10-04T10:52:42.401Z,102008.03
2022-10-04T10:55:48.219Z,102024.84
2022-10-04T10:58:48.142Z,102008.56
2022-10-04T11:01:38.658Z,102016.22
2022-10-04T11:04:24.379Z,102010.00
2022-10-04T11:07:28.283Z,102007.94
2022-10-04T11:10:16.549Z,101999.94
2022-10-04T11:12:55.514Z,102002.34
2022-10-04T11:16:08.100Z,101996.28
2022-10-04T11:18:45.239Z,101990.34
2022-10-04T11:21:39.606Z,101997.59
2022-10-04T11:24:34.649Z,101994.97
2022-10-04T11:27:10.951Z,101993.03
2022-10-04T11:29:46.656Z,101978.59
2022-10-04T11:32:39.987Z,101975.44
2022-10-04T11:35:44.262Z,101972.78
2022-10-04T11:38:31.245Z,101967.75
2022-10-04T11:41:42.712Z,101963.13
2022-10-04T11:44:44.172Z,101957.88
2022-10-04T11:47:22.732Z,101954.59
2022-10-04T11:50:03.078Z,101955.09
2022-10-04T11:52:51.470Z,101947.03
2022-10-04T11:55:34.218Z,101953.59
2022-10-04T11:58:28.718Z,101958.47
2022-10-04T12:01:30.405Z,101962.13
2022-10-04T12:04:16.971Z,101935.59
2022-10-04T12:06:57.742Z,101937.06
2022-10-04T12:09:49.449Z,101946.22
2022-10-04T12:12:38.258Z,101941.19
2022-10-04T12:15:19.025Z,101921.53
2022-10-04T12:18:14.368Z,101932.34
2022-10-04T12:20:56.814Z,101927.34
2022-10-04T12:23:45.350Z,101923.44
2022-10-04T12:26:23.860Z,101907.69
2022-10-04T12:29:24.316Z,101920.75
2022-10-04T12:31:59.067Z,101911.22
2022-10-04T12:34:59.850Z,101903.19
2022-10-04T12:37:32.266Z,101899.00
2022-10-04T12:40:13.025Z,101889.06
2022-10-04T12:42:49.211Z,101897.03
2022-10-04T12:45:21.833Z,101890.41
2022-10-04T12:47:54.448Z,101884.72
2022-10-04T12:50:26.258Z,101880.72
2022-10-04T12:53:31.963Z,101878.22
2022-10-04T12:56:25.173Z,101885.81
2022-10-04T12:59:18.247Z,101867.34
2022-10-04T13:01:51.733Z,101867.38
2022-10-04T13:04:40.317Z,101872.91
2022-10-04T13:07:38.133Z,101863.34
2022-10-04T13:10:29.949Z,101849.97
2022-10-04T13:13:06.782Z,101852.75
2022-10-04T13:18:59.753Z,101867.31
2022-10-04T13:21:38.697Z,101880.53
2022-10-04T13:24:14.649Z,101901.78
2022-10-04T13:27:14.167Z,101889.56
2022-10-04T13:29:56.650Z,101872.44
2022-10-04T13:32:28.888Z,101867.13
2022-10-04T13:35:04.658Z,101867.84
2022-10-04T13:38:00.559Z,101860.31
2022-10-04T13:41:02.476Z,101851.63
2022-10-04T13:43:39.773Z,101853.44
2022-10-04T13:46:20.568Z,101847.16
2022-10-04T13:49:07.048Z,101840.19
2022-10-04T13:51:39.993Z,101832.41
2022-10-04T13:54:53.633Z,101826.91
2022-10-04T13:57:41.038Z,101834.13
2022-10-04T14:00:32.016Z,101825.56
2022-10-04T14:03:17.961Z,101821.75
2022-10-04T14:06:01.121Z,101822.13
2022-10-04T14:08:49.035Z,101831.91
2022-10-04T14:11:30.614Z,101846.09
2022-10-04T14:14:10.248Z,101849.88
2022-10-04T14:17:05.181Z,101857.31
2022-10-04T14:19:38.006Z,101844.19
2022-10-04T14:22:37.103Z,101847.28
2022-10-04T14:25:23.235Z,101857.22
2022-10-04T14:28:22.725Z,101856.00
2022-10-04T14:31:03.324Z,101849.72
2022-10-04T14:33:54.792Z,101825.84
2022-10-04T14:36:35.209Z,101820.78
2022-10-04T14:39:27.910Z,101825.66
2022-10-04T14:42:23.221Z,101826.06
2022-10-04T14:45:27.153Z,101816.78
2022-10-04T14:48:19.479Z,101810.91
2022-10-04T14:51:01.237Z,101798.28
2022-10-04T14:53:36.959Z,101805.66
2022-10-04T14:56:06.725Z,101818.97
2022-10-04T14:58:47.105Z,101825.69
2022-10-04T15:01:16.884Z,101831.63
2022-10-04T15:04:11.300Z,101837.38
2022-10-04T15:06:49.665Z,101842.94
2022-10-04T15:09:44.094Z,101827.47
2022-10-04T15:13:09.381Z,101844.78
2022-10-04T15:15:44.732Z,101860.25
2022-10-04T15:18:33.118Z,101855.34
2022-10-04T15:21:28.909Z,101851.63
2022-10-04T15:24:13.086Z,101846.63
2022-10-04T15:27:20.879Z,101840.78
2022-10-04T15:30:22.729Z,101843.13
2022-10-04T15:33:13.719Z,101830.66
2022-10-04T15:35:58.790Z,101840.22
2022-10-04T15:38:43.743Z,101836.06
2022-10-04T15:41:27.298Z,101838.81
2022-10-04T15:44:11.813Z,101824.78
2022-10-04T15:46:50.481Z,101827.69
2022-10-04T15:49:17.186Z,101831.72
2022-10-04T15:52:03.235Z,101836.00
2022-10-04T15:55:21.531Z,101817.03
2022-10-04T15:57:48.199Z,101826.59
2022-10-04T16:00:26.976Z,101820.41
2022-10-04T16:03:15.318Z,101821.84
2022-10-04T16:06:00.093Z,101826.78
2022-10-04T16:08:48.566Z,101832.38
2022-10-04T16:11:31.096Z,101818.47
2022-10-04T16:14:23.931Z,101827.94
2022-10-04T16:16:58.990Z,101826.50
2022-10-04T16:20:04.676Z,101830.88
2022-10-04T16:22:35.510Z,101831.72
2022-10-04T16:25:24.059Z,101828.44
2022-10-04T16:28:05.770Z,101819.38
2022-10-04T16:31:20.109Z,101817.59
2022-10-04T16:34:07.244Z,101816.78
2022-10-04T16:36:52.961Z,101822.63
2022-10-04T16:40:00.169Z,101814.50
2022-10-04T16:42:57.704Z,101824.69
2022-10-04T16:45:45.664Z,101822.78
2022-10-04T16:48:18.223Z,101829.50
2022-10-04T16:51:04.580Z,101836.13
2022-10-04T16:53:50.731Z,101844.16
2022-10-04T16:56:29.719Z,101840.03
2022-10-04T16:59:05.536Z,101841.22
2022-10-04T17:01:33.999Z,101831.03
2022-10-04T17:04:04.030Z,101821.41
2022-10-04T17:06:33.864Z,101828.25
2022-10-04T17:09:17.737Z,101826.16
2022-10-04T17:12:18.706Z,101834.53
2022-10-04T17:15:11.360Z,101849.75
2022-10-04T17:17:50.894Z,101857.84
2022-10-04T17:20:45.558Z,101856.63
2022-10-04T17:23:18.486Z,101858.66
2022-10-04T17:26:09.738Z,101855.91
2022-10-04T17:29:01.390Z,101863.06
2022-10-04T17:31:55.340Z,101855.28
2022-10-04T17:34:36.245Z,101860.56
2022-10-04T17:37:24.943Z,101873.81
2022-10-04T17:40:08.898Z,101877.50
2022-10-04T17:43:05.913Z,101867.03
2022-10-04T17:46:10.207Z,101853.09
2022-10-04T17:49:16.435Z,101852.56
2022-10-04T17:52:13.499Z,101871.38
2022-10-04T17:55:07.925Z,101866.41
2022-10-04T17:57:35.210Z,101893.88
2022-10-04T18:00:10.249Z,101898.16
2022-10-04T18:02:52.619Z,101901.75
2022-10-04T18:05:25.475Z,101899.06
2022-10-04T18:08:04.287Z,101884.34
2022-10-04T18:10:50.396Z,101877.53
2022-10-04T18:13:34.293Z,101885.28
2022-10-04T18:16:19.496Z,101888.38
2022-10-04T18:18:47.342Z,101873.59
2022-10-04T18:21:31.532Z,101873.00
2022-10-04T18:24:17.763Z,101864.78
2022-10-04T18:27:04.986Z,101854.53
2022-10-04T18:29:44.938Z,101857.63
2022-10-04T18:32:27.126Z,101845.47
2022-10-04T18:35:18.574Z,101830.75
2022-10-04T18:37:45.551Z,101832.06
2022-10-04T18:40:33.478Z,101837.03
2022-10-04T18:43:01.853Z,101846.94
2022-10-04T18:45:33.959Z,101856.66
2022-10-04T18:48:13.721Z,101874.13
2022-10-04T18:50:47.207Z,101868.56
2022-10-04T18:53:26.093Z,101852.06
2022-10-04T18:56:01.904Z,101853.72
2022-10-04T18:59:12.700Z,101850.38
2022-10-04T19:02:03.711Z,101837.16
2022-10-04T19:04:49.766Z,101842.66
2022-10-04T19:07:18.748Z,101840.25
2022-10-04T19:10:06.390Z,101841.97
2022-10-04T19:12:53.156Z,101830.84
2022-10-04T19:15:49.338Z,101832.53
2022-10-04T19:18:48.627Z,101831.63
2022-10-04T19:21:59.117Z,101828.69
2022-10-04T19:24:46.127Z,101815.44
2022-10-04T19:27:31.970Z,101821.72
2022-10-04T19:30:04.886Z,101816.53
2022-10-04T19:32:59.519Z,101818.44
2022-10-04T19:35:46.157Z,101810.56
2022-10-04T19:38:37.120Z,101808.88
2022-10-04T19:41:38.308Z,101812.78
2022-10-04T19:44:26.174Z,101815.06
2022-10-04T19:47:03.473Z,101807.13
2022-10-04T19:49:57.078Z,101822.06
2022-10-04T19:52:59.541Z,101819.09
2022-10-04T19:55:42.787Z,101823.31
2022-10-04T19:58:33.657Z,101829.94
2022-10-04T20:01:01.841Z,101830.09
2022-10-04T20:03:28.923Z,101828.03
2022-10-04T20:05:56.579Z,101823.31
2022-10-04T20:08:50.078Z,101813.28
2022-10-04T20:11:48.736Z,101805.06
2022-10-04T20:14:35.446Z,101797.09
2022-10-04T20:17:04.060Z,101793.13
2022-10-04T20:19:30.755Z,101776.06
2022-10-04T20:22:12.771Z,101785.06
2022-10-04T20:24:39.530Z,101797.34
2022-10-04T20:27:24.758Z,101793.31
2022-10-04T20:29:56.066Z,101794.03
2022-10-04T20:32:36.742Z,101785.13
2022-10-04T20:35:08.965Z,101797.25
2022-10-04T20:38:20.011Z,101799.06
2022-10-04T20:40:46.239Z,101810.63
2022-10-04T20:43:15.881Z,101806.00
2022-10-04T20:45:46.123Z,101808.34
2022-10-04T20:48:18.914Z,101822.16
2022-10-04T20:50:49.436Z,101824.97
2022-10-04T20:53:23.720Z,101813.22
2022-10-04T20:55:54.023Z,101820.16
2022-10-04T20:58:32.812Z,101813.81
2022-10-04T21:01:36.117Z,101807.91
2022-10-04T21:04:32.391Z,101812.47
2022-10-04T21:07:05.816Z,101823.28
2022-10-04T21:09:34.615Z,101826.59
2022-10-04T21:12:03.257Z,101818.75
2022-10-04T21:14:35.129Z,101813.75
2022-10-04T21:17:28.146Z,101802.78
2022-10-04T21:19:55.520Z,101814.03
2022-10-04T21:22:31.217Z,101799.34
2022-10-04T21:25:18.154Z,101799.59
2022-10-04T21:27:45.510Z,101787.72
2022-10-04T21:30:17.329Z,101789.84
2022-10-04T21:32:44.132Z,101797.84
2022-10-04T21:35:12.461Z,101795.41
2022-10-04T21:37:39.445Z,101808.59
2022-10-04T21:40:07.735Z,101804.94
2022-10-04T21:42:34.469Z,101810.53
2022-10-04T21:45:01.179Z,101805.34
2022-10-04T21:47:27.964Z,101817.66
2022-10-04T21:49:55.225Z,101813.25
2022-10-04T21:52:22.337Z,101822.91
2022-10-04T21:54:49.209Z,101814.66
2022-10-04T21:57:16.116Z,101812.66
2022-10-04T21:59:42.915Z,101806.22
2022-10-04T22:02:09.780Z,101807.91
2022-10-04T22:04:38.121Z,101813.28
2022-10-04T22:07:05.067Z,101811.41
2022-10-04T22:09:33.211Z,101809.69
2022-10-04T22:12:00.087Z,101807.47
2022-10-04T22:14:26.906Z,101804.84
2022-10-04T22:16:53.716Z,101816.09
2022-10-04T22:19:20.529Z,101815.03
2022-10-04T22:21:47.257Z,101811.09
2022-10-04T22:24:19.267Z,101819.88
2022-10-04T22:26:46.793Z,101811.72
2022-10-04T22:29:15.916Z,101808.47
2022-10-04T22:31:50.886Z,101811.31
2022-10-04T22:34:22.897Z,101818.72
2022-10-04T22:36:52.046Z,101806.31
2022-10-04T22:39:20.376Z,101800.22
2022-10-04T22:41:55.890Z,101814.28
2022-10-04T22:44:44.410Z,101804.06
2022-10-04T22:47:15.755Z,101802.31
2022-10-04T22:49:45.328Z,101800.69
2022-10-04T22:52:19.797Z,101804.53
2022-10-04T22:54:49.304Z,101816.81
2022-10-04T22:57:18.546Z,101811.88
2022-10-04T22:59:51.215Z,101816.53
2022-10-04T23:02:21.996Z,101819.88
2022-10-04T23:05:10.162Z,101823.22
2022-10-04T23:07:38.492Z,101819.50
2022-10-04T23:10:06.444Z,101815.09
2022-10-04T23:12:33.453Z,101819.72
2022-10-04T23:15:01.868Z,101828.41
2022-10-04T23:17:31.399Z,101826.56
2022-10-04T23:20:03.808Z,101837.25
2022-10-04T23:22:31.219Z,101839.22
2022-10-04T23:24:58.233Z,101837.25
2022-10-04T23:27:25.021Z,101834.56
2022-10-04T23:30:21.645Z,101842.34
2022-10-04T23:32:50.732Z,101829.88
2022-10-04T23:35:32.407Z,101833.69
2022-10-04T23:38:01.176Z,101840.53
2022-10-04T23:40:27.977Z,101844.97
2022-10-04T23:42:56.737Z,101833.28
2022-10-04T23:45:26.869Z,101837.03
2022-10-04T23:47:56.234Z,101840.09
2022-10-04T23:50:30.180Z,101845.19
2022-10-04T23:53:04.340Z,101836.44
2022-10-04T23:55:36.040Z,101844.88
2022-10-04T23:58:12.607Z,101843.28
